VOE4748 LIRN-LICJ
Flight info
| Callsign | VOE4748 |
|---|---|
| Flight time | 0h 41m |
| Altitude | 31000 |
| Route | DELER DCT AMANO DCT ROSAS |
| Aircraft | A319/M-SDE3FGHIRWY/LB1 |
Departure
| Time | 2026-04-28 17:24 |
|---|---|
| Airport | Naples International Airport (LIRN) |
Arrival
| Time | 2026-04-28 18:05 |
|---|---|
| Airport | Falcone–Borsellino Airport (LICJ) |
| Time | Latitude | Longitude | Altitude | Speed | Heading |
|---|---|---|---|---|---|
| 2026-04-28 17:02 | 40.87873 | 14.28342 | 290 ft | 0 kts | 187° |
| 2026-04-28 17:10 | 40.87880 | 14.28343 | 290 ft | 2 kts | 186° |
| 2026-04-28 17:11 | 40.87897 | 14.28347 | 294 ft | 2 kts | 191° |
| 2026-04-28 17:11 | 40.87913 | 14.28351 | 293 ft | 2 kts | 195° |
| 2026-04-28 17:11 | 40.87929 | 14.28358 | 290 ft | 2 kts | 211° |
| 2026-04-28 17:11 | 40.87941 | 14.28373 | 294 ft | 2 kts | 266° |
| 2026-04-28 17:12 | 40.87941 | 14.28387 | 296 ft | 1 kts | 279° |
| 2026-04-28 17:12 | 40.87940 | 14.28387 | 295 ft | 0 kts | 279° |
| 2026-04-28 17:14 | 40.87943 | 14.28366 | 293 ft | 5 kts | 278° |
| 2026-04-28 17:15 | 40.87951 | 14.28283 | 290 ft | 12 kts | 277° |
| 2026-04-28 17:15 | 40.87961 | 14.28170 | 292 ft | 12 kts | 279° |
| 2026-04-28 17:15 | 40.88023 | 14.28146 | 291 ft | 12 kts | 42° |
| 2026-04-28 17:15 | 40.88069 | 14.28255 | 289 ft | 15 kts | 83° |
| 2026-04-28 17:16 | 40.88054 | 14.28401 | 287 ft | 17 kts | 98° |
| 2026-04-28 17:16 | 40.88039 | 14.28568 | 284 ft | 18 kts | 97° |
| 2026-04-28 17:16 | 40.88096 | 14.28700 | 281 ft | 18 kts | 51° |
| 2026-04-28 17:16 | 40.88181 | 14.28840 | 278 ft | 21 kts | 52° |
| 2026-04-28 17:17 | 40.88276 | 14.29005 | 274 ft | 24 kts | 53° |
| 2026-04-28 17:17 | 40.88383 | 14.29189 | 269 ft | 27 kts | 53° |
| 2026-04-28 17:17 | 40.88500 | 14.29394 | 264 ft | 29 kts | 53° |
| 2026-04-28 17:17 | 40.88630 | 14.29617 | 257 ft | 32 kts | 53° |
| 2026-04-28 17:18 | 40.88769 | 14.29859 | 250 ft | 34 kts | 52° |
| 2026-04-28 17:18 | 40.88908 | 14.30099 | 242 ft | 14 kts | 54° |
| 2026-04-28 17:18 | 40.88939 | 14.30154 | 240 ft | 0 kts | 52° |
| 2026-04-28 17:19 | 40.88944 | 14.30162 | 239 ft | 4 kts | 52° |
| 2026-04-28 17:19 | 40.88983 | 14.30186 | 238 ft | 8 kts | 330° |
| 2026-04-28 17:20 | 40.89009 | 14.30160 | 238 ft | 0 kts | 327° |
| 2026-04-28 17:22 | 40.89010 | 14.30159 | 238 ft | 1 kts | 327° |
| 2026-04-28 17:22 | 40.89030 | 14.30143 | 238 ft | 6 kts | 328° |
| 2026-04-28 17:23 | 40.89067 | 14.30058 | 239 ft | 6 kts | 241° |
| 2026-04-28 17:23 | 40.88972 | 14.29858 | 246 ft | 63 kts | 238° |
| 2026-04-28 17:23 | 40.88606 | 14.29081 | 268 ft | 134 kts | 238° |
| 2026-04-28 17:23 | 40.88075 | 14.27960 | 764 ft | 145 kts | 237° |
| 2026-04-28 17:24 | 40.87415 | 14.26933 | 1436 ft | 150 kts | 215° |
| 2026-04-28 17:24 | 40.86416 | 14.26499 | 2071 ft | 159 kts | 180° |
| 2026-04-28 17:24 | 40.85242 | 14.26665 | 2533 ft | 181 kts | 174° |
| 2026-04-28 17:24 | 40.83946 | 14.26858 | 3156 ft | 191 kts | 174° |
| 2026-04-28 17:25 | 40.82613 | 14.27050 | 3908 ft | 194 kts | 174° |
| 2026-04-28 17:25 | 40.80358 | 14.27362 | 5152 ft | 199 kts | 174° |
| 2026-04-28 17:25 | 40.78970 | 14.27550 | 5972 ft | 201 kts | 175° |
| 2026-04-28 17:26 | 40.77562 | 14.27690 | 6709 ft | 210 kts | 183° |
| 2026-04-28 17:26 | 40.76035 | 14.27419 | 7160 ft | 234 kts | 189° |
| 2026-04-28 17:26 | 40.74344 | 14.27049 | 7658 ft | 258 kts | 190° |
| 2026-04-28 17:26 | 40.72498 | 14.26633 | 8279 ft | 277 kts | 190° |
| 2026-04-28 17:27 | 40.70571 | 14.26200 | 9180 ft | 284 kts | 190° |
| 2026-04-28 17:27 | 40.68607 | 14.25762 | 10126 ft | 289 kts | 190° |
| 2026-04-28 17:27 | 40.66548 | 14.25312 | 10612 ft | 312 kts | 189° |
| 2026-04-28 17:27 | 40.64352 | 14.24832 | 11258 ft | 325 kts | 189° |
| 2026-04-28 17:28 | 40.62097 | 14.24340 | 12097 ft | 331 kts | 189° |
| 2026-04-28 17:28 | 40.57493 | 14.23334 | 13783 ft | 340 kts | 189° |
| 2026-04-28 17:28 | 40.55141 | 14.22823 | 14592 ft | 344 kts | 189° |
| 2026-04-28 17:29 | 40.52766 | 14.22311 | 15371 ft | 348 kts | 189° |
| 2026-04-28 17:29 | 40.50389 | 14.21799 | 16119 ft | 352 kts | 189° |
| 2026-04-28 17:29 | 40.47954 | 14.21273 | 16857 ft | 356 kts | 189° |
| 2026-04-28 17:30 | 40.43007 | 14.20200 | 18281 ft | 364 kts | 189° |
| 2026-04-28 17:30 | 40.37947 | 14.19108 | 19645 ft | 372 kts | 189° |
| 2026-04-28 17:30 | 40.35382 | 14.18553 | 20309 ft | 376 kts | 189° |
| 2026-04-28 17:31 | 40.32789 | 14.17992 | 20956 ft | 379 kts | 189° |
| 2026-04-28 17:31 | 40.27528 | 14.16861 | 22199 ft | 387 kts | 189° |
| 2026-04-28 17:32 | 40.22162 | 14.15710 | 23383 ft | 394 kts | 189° |
| 2026-04-28 17:32 | 40.19446 | 14.15117 | 23951 ft | 397 kts | 191° |
| 2026-04-28 17:32 | 40.16775 | 14.14123 | 24503 ft | 401 kts | 200° |
| 2026-04-28 17:32 | 40.14143 | 14.12877 | 25020 ft | 404 kts | 200° |
| 2026-04-28 17:33 | 40.11520 | 14.11650 | 25521 ft | 407 kts | 200° |
| 2026-04-28 17:33 | 40.08843 | 14.10402 | 26011 ft | 410 kts | 200° |
| 2026-04-28 17:33 | 40.06144 | 14.09145 | 26486 ft | 413 kts | 200° |
| 2026-04-28 17:33 | 40.04308 | 14.08291 | 26797 ft | 415 kts | 200° |
| 2026-04-28 17:34 | 40.00686 | 14.06607 | 27397 ft | 419 kts | 200° |
| 2026-04-28 17:34 | 39.97928 | 14.05325 | 27834 ft | 422 kts | 200° |
| 2026-04-28 17:34 | 39.95146 | 14.04042 | 28267 ft | 425 kts | 199° |
| 2026-04-28 17:34 | 39.92346 | 14.02751 | 28695 ft | 428 kts | 200° |
| 2026-04-28 17:35 | 39.89534 | 14.01450 | 28952 ft | 430 kts | 200° |
| 2026-04-28 17:35 | 39.86714 | 14.00144 | 29006 ft | 430 kts | 200° |
| 2026-04-28 17:35 | 39.81082 | 13.97533 | 29009 ft | 430 kts | 200° |
| 2026-04-28 17:36 | 39.75452 | 13.94925 | 29010 ft | 430 kts | 200° |
| 2026-04-28 17:36 | 39.69817 | 13.92333 | 29009 ft | 429 kts | 199° |
| 2026-04-28 17:37 | 39.64210 | 13.89766 | 29009 ft | 429 kts | 199° |
| 2026-04-28 17:37 | 39.58570 | 13.87184 | 29009 ft | 429 kts | 199° |
| 2026-04-28 17:38 | 39.52928 | 13.84600 | 29009 ft | 429 kts | 199° |
| 2026-04-28 17:38 | 39.47298 | 13.82018 | 29010 ft | 429 kts | 199° |
| 2026-04-28 17:39 | 39.41668 | 13.79442 | 28905 ft | 425 kts | 199° |
| 2026-04-28 17:39 | 39.36118 | 13.76921 | 27595 ft | 421 kts | 199° |
| 2026-04-28 17:40 | 39.33427 | 13.75705 | 27327 ft | 410 kts | 199° |
| 2026-04-28 17:40 | 39.30738 | 13.74494 | 27070 ft | 406 kts | 199° |
| 2026-04-28 17:40 | 39.28086 | 13.73297 | 26822 ft | 403 kts | 199° |
| 2026-04-28 17:40 | 39.25441 | 13.72102 | 26572 ft | 401 kts | 199° |
| 2026-04-28 17:41 | 39.22813 | 13.70915 | 26303 ft | 397 kts | 199° |
| 2026-04-28 17:41 | 39.20218 | 13.69744 | 25842 ft | 394 kts | 199° |
| 2026-04-28 17:41 | 39.17642 | 13.68580 | 25376 ft | 391 kts | 199° |
| 2026-04-28 17:41 | 39.15088 | 13.67426 | 24910 ft | 388 kts | 199° |
| 2026-04-28 17:42 | 39.12554 | 13.66282 | 24447 ft | 384 kts | 199° |
| 2026-04-28 17:42 | 39.10887 | 13.65529 | 24138 ft | 382 kts | 199° |
| 2026-04-28 17:42 | 39.07550 | 13.64024 | 23501 ft | 378 kts | 199° |
| 2026-04-28 17:42 | 39.05077 | 13.62912 | 23035 ft | 375 kts | 199° |
| 2026-04-28 17:43 | 39.02625 | 13.61812 | 22543 ft | 372 kts | 199° |
| 2026-04-28 17:43 | 39.00186 | 13.60719 | 22073 ft | 370 kts | 199° |
| 2026-04-28 17:43 | 38.97770 | 13.59636 | 21589 ft | 367 kts | 199° |
| 2026-04-28 17:43 | 38.95368 | 13.58560 | 21107 ft | 364 kts | 199° |
| 2026-04-28 17:44 | 38.92979 | 13.57489 | 20621 ft | 362 kts | 199° |
| 2026-04-28 17:44 | 38.90607 | 13.56425 | 20133 ft | 360 kts | 199° |
| 2026-04-28 17:44 | 38.88281 | 13.55382 | 19656 ft | 358 kts | 199° |
| 2026-04-28 17:44 | 38.85936 | 13.54337 | 19169 ft | 356 kts | 199° |
| 2026-04-28 17:45 | 38.83529 | 13.53610 | 18592 ft | 357 kts | 189° |
| 2026-04-28 17:45 | 38.81075 | 13.53102 | 18015 ft | 357 kts | 189° |
| 2026-04-28 17:45 | 38.78647 | 13.52599 | 17428 ft | 350 kts | 189° |
| 2026-04-28 17:45 | 38.76255 | 13.52103 | 16852 ft | 346 kts | 189° |
| 2026-04-28 17:46 | 38.73893 | 13.51605 | 16275 ft | 342 kts | 189° |
| 2026-04-28 17:46 | 38.71553 | 13.51106 | 15698 ft | 339 kts | 189° |
| 2026-04-28 17:46 | 38.69233 | 13.50613 | 15116 ft | 336 kts | 189° |
| 2026-04-28 17:46 | 38.66935 | 13.50126 | 14544 ft | 333 kts | 189° |
| 2026-04-28 17:47 | 38.64677 | 13.49650 | 13968 ft | 326 kts | 189° |
| 2026-04-28 17:47 | 38.62462 | 13.49184 | 13392 ft | 319 kts | 189° |
| 2026-04-28 17:47 | 38.60290 | 13.48728 | 12816 ft | 313 kts | 189° |
| 2026-04-28 17:47 | 38.58873 | 13.48431 | 12434 ft | 310 kts | 189° |
| 2026-04-28 17:48 | 38.56099 | 13.47848 | 12011 ft | 292 kts | 190° |
| 2026-04-28 17:48 | 38.54217 | 13.47146 | 11799 ft | 280 kts | 204° |
| 2026-04-28 17:48 | 38.52546 | 13.45905 | 11317 ft | 277 kts | 218° |
| 2026-04-28 17:48 | 38.51191 | 13.44195 | 10815 ft | 273 kts | 232° |
| 2026-04-28 17:49 | 38.50207 | 13.42148 | 10303 ft | 269 kts | 246° |
| 2026-04-28 17:49 | 38.49501 | 13.39946 | 9814 ft | 266 kts | 248° |
| 2026-04-28 17:49 | 38.48802 | 13.37772 | 9310 ft | 263 kts | 247° |
| 2026-04-28 17:49 | 38.48107 | 13.35635 | 8805 ft | 259 kts | 247° |
| 2026-04-28 17:50 | 38.47420 | 13.33525 | 8306 ft | 256 kts | 247° |
| 2026-04-28 17:50 | 38.46747 | 13.31442 | 7805 ft | 252 kts | 247° |
| 2026-04-28 17:50 | 38.46086 | 13.29391 | 7304 ft | 248 kts | 247° |
| 2026-04-28 17:50 | 38.45430 | 13.27365 | 6801 ft | 245 kts | 247° |
| 2026-04-28 17:51 | 38.44783 | 13.25370 | 6300 ft | 242 kts | 247° |
| 2026-04-28 17:51 | 38.44149 | 13.23423 | 5804 ft | 240 kts | 247° |
| 2026-04-28 17:51 | 38.43515 | 13.21477 | 5412 ft | 233 kts | 246° |
| 2026-04-28 17:51 | 38.42607 | 13.19809 | 5167 ft | 228 kts | 220° |
| 2026-04-28 17:52 | 38.41219 | 13.18901 | 5026 ft | 226 kts | 192° |
| 2026-04-28 17:52 | 38.39663 | 13.18921 | 5010 ft | 226 kts | 165° |
| 2026-04-28 17:52 | 38.36813 | 13.20401 | 5007 ft | 217 kts | 157° |
| 2026-04-28 17:53 | 38.35427 | 13.21161 | 5008 ft | 217 kts | 154° |
| 2026-04-28 17:53 | 38.34286 | 13.22387 | 4993 ft | 218 kts | 123° |
| 2026-04-28 17:53 | 38.33816 | 13.24176 | 4930 ft | 211 kts | 92° |
| 2026-04-28 17:53 | 38.34094 | 13.25933 | 4835 ft | 200 kts | 67° |
| 2026-04-28 17:54 | 38.34641 | 13.27548 | 4693 ft | 198 kts | 66° |
| 2026-04-28 17:54 | 38.35181 | 13.29155 | 4571 ft | 197 kts | 66° |
| 2026-04-28 17:54 | 38.35716 | 13.30758 | 4446 ft | 196 kts | 67° |
| 2026-04-28 17:54 | 38.36248 | 13.32357 | 4318 ft | 196 kts | 67° |
| 2026-04-28 17:55 | 38.36771 | 13.33935 | 4197 ft | 195 kts | 67° |
| 2026-04-28 17:55 | 38.37290 | 13.35492 | 4075 ft | 187 kts | 67° |
| 2026-04-28 17:55 | 38.37794 | 13.37008 | 3985 ft | 185 kts | 67° |
| 2026-04-28 17:55 | 38.38294 | 13.38514 | 3962 ft | 184 kts | 67° |
| 2026-04-28 17:56 | 38.38521 | 13.40104 | 3959 ft | 184 kts | 94° |
| 2026-04-28 17:56 | 38.38141 | 13.41645 | 3961 ft | 183 kts | 122° |
| 2026-04-28 17:56 | 38.37256 | 13.42785 | 3962 ft | 182 kts | 148° |
| 2026-04-28 17:56 | 38.36037 | 13.43395 | 3979 ft | 198 kts | 162° |
| 2026-04-28 17:57 | 38.34708 | 13.43943 | 3964 ft | 202 kts | 162° |
| 2026-04-28 17:57 | 38.33370 | 13.44500 | 3961 ft | 199 kts | 162° |
| 2026-04-28 17:57 | 38.32081 | 13.45032 | 3958 ft | 192 kts | 163° |
| 2026-04-28 17:57 | 38.30779 | 13.45120 | 3954 ft | 182 kts | 192° |
| 2026-04-28 17:58 | 38.29673 | 13.44418 | 3962 ft | 178 kts | 220° |
| 2026-04-28 17:58 | 38.28957 | 13.43152 | 3962 ft | 178 kts | 246° |
| 2026-04-28 17:58 | 38.28482 | 13.41703 | 3965 ft | 177 kts | 246° |
| 2026-04-28 17:58 | 38.28003 | 13.40262 | 3961 ft | 177 kts | 246° |
| 2026-04-28 17:59 | 38.27522 | 13.38821 | 3964 ft | 177 kts | 246° |
| 2026-04-28 17:59 | 38.27042 | 13.37382 | 3961 ft | 177 kts | 246° |
| 2026-04-28 17:59 | 38.26568 | 13.35959 | 3932 ft | 177 kts | 246° |
| 2026-04-28 17:59 | 38.26086 | 13.34513 | 3772 ft | 175 kts | 246° |
| 2026-04-28 18:00 | 38.25622 | 13.33122 | 3567 ft | 166 kts | 246° |
| 2026-04-28 18:00 | 38.25185 | 13.31811 | 3361 ft | 158 kts | 246° |
| 2026-04-28 18:00 | 38.24758 | 13.30530 | 3154 ft | 157 kts | 246° |
| 2026-04-28 18:00 | 38.24331 | 13.29251 | 2941 ft | 156 kts | 246° |
| 2026-04-28 18:01 | 38.23907 | 13.27981 | 2737 ft | 156 kts | 246° |
| 2026-04-28 18:01 | 38.23485 | 13.26718 | 2529 ft | 154 kts | 246° |
| 2026-04-28 18:01 | 38.23074 | 13.25487 | 2329 ft | 150 kts | 246° |
| 2026-04-28 18:01 | 38.22680 | 13.24327 | 2108 ft | 137 kts | 246° |
| 2026-04-28 18:02 | 38.22313 | 13.23247 | 1897 ft | 131 kts | 246° |
| 2026-04-28 18:02 | 38.21969 | 13.22191 | 1720 ft | 128 kts | 247° |
| 2026-04-28 18:02 | 38.21627 | 13.21143 | 1563 ft | 128 kts | 247° |
| 2026-04-28 18:02 | 38.21279 | 13.20110 | 1419 ft | 127 kts | 246° |
| 2026-04-28 18:03 | 38.20932 | 13.19085 | 1287 ft | 126 kts | 248° |
| 2026-04-28 18:03 | 38.20572 | 13.18045 | 1120 ft | 130 kts | 248° |
| 2026-04-28 18:03 | 38.20215 | 13.16975 | 1000 ft | 133 kts | 248° |
| 2026-04-28 18:03 | 38.19862 | 13.15907 | 818 ft | 131 kts | 248° |
| 2026-04-28 18:04 | 38.19518 | 13.14858 | 615 ft | 126 kts | 248° |
| 2026-04-28 18:04 | 38.19178 | 13.13843 | 404 ft | 125 kts | 247° |
| 2026-04-28 18:04 | 38.18833 | 13.12819 | 264 ft | 128 kts | 249° |
| 2026-04-28 18:04 | 38.18485 | 13.11784 | 90 ft | 126 kts | 248° |
| 2026-04-28 18:05 | 38.18174 | 13.10858 | 53 ft | 98 kts | 246° |
| 2026-04-28 18:05 | 38.18025 | 13.10417 | 53 ft | 67 kts | 246° |
| 2026-04-28 18:05 | 38.17823 | 13.09818 | 52 ft | 34 kts | 248° |
| 2026-04-28 18:05 | 38.17733 | 13.09547 | 53 ft | 33 kts | 246° |
| 2026-04-28 18:06 | 38.17648 | 13.09294 | 52 ft | 30 kts | 246° |
| 2026-04-28 18:06 | 38.17609 | 13.09132 | 53 ft | 13 kts | 305° |
| 2026-04-28 18:06 | 38.17682 | 13.09158 | 52 ft | 13 kts | 27° |
| 2026-04-28 18:06 | 38.17775 | 13.09211 | 53 ft | 16 kts | 24° |
| 2026-04-28 18:07 | 38.17854 | 13.09301 | 53 ft | 16 kts | 66° |
| 2026-04-28 18:07 | 38.17900 | 13.09435 | 53 ft | 17 kts | 67° |
| 2026-04-28 18:07 | 38.17952 | 13.09590 | 51 ft | 20 kts | 66° |
| 2026-04-28 18:07 | 38.18010 | 13.09757 | 52 ft | 21 kts | 66° |
| 2026-04-28 18:08 | 38.18075 | 13.09868 | 53 ft | 9 kts | 341° |
| 2026-04-28 18:08 | 38.18130 | 13.09878 | 52 ft | 9 kts | 43° |
| 2026-04-28 18:08 | 38.18155 | 13.09956 | 51 ft | 10 kts | 68° |
| 2026-04-28 18:08 | 38.18188 | 13.10058 | 53 ft | 15 kts | 66° |
| 2026-04-28 18:09 | 38.18232 | 13.10188 | 53 ft | 17 kts | 67° |
| 2026-04-28 18:09 | 38.18280 | 13.10330 | 51 ft | 18 kts | 66° |
| 2026-04-28 18:09 | 38.18324 | 13.10459 | 50 ft | 12 kts | 65° |
| 2026-04-28 18:09 | 38.18397 | 13.10506 | 50 ft | 13 kts | 20° |
| 2026-04-28 18:10 | 38.18454 | 13.10561 | 53 ft | 7 kts | 71° |
| 2026-04-28 18:10 | 38.18489 | 13.10583 | 53 ft | 7 kts | 336° |
| 2026-04-28 18:10 | 38.18534 | 13.10558 | 53 ft | 6 kts | 337° |
| 2026-04-28 18:10 | 38.18535 | 13.10558 | 53 ft | 0 kts | 337° |